sensor_id;sensor_type;location;lat;lon;timestamp;P1;durP1;ratioP1;P2;durP2;ratioP2
19004;SDS011;9635;52.078;8.648;2023-04-25T00:02:21;14.82;;;4.18;;
19004;SDS011;9635;52.078;8.648;2023-04-25T00:07:24;18.75;;;6.00;;
19004;SDS011;9635;52.078;8.648;2023-04-25T00:12:27;15.00;;;5.57;;
19004;SDS011;9635;52.078;8.648;2023-04-25T00:17:32;21.05;;;6.07;;
19004;SDS011;9635;52.078;8.648;2023-04-25T00:22:36;14.10;;;5.97;;
19004;SDS011;9635;52.078;8.648;2023-04-25T00:27:39;15.63;;;6.28;;
19004;SDS011;9635;52.078;8.648;2023-04-25T00:32:44;19.17;;;6.63;;
19004;SDS011;9635;52.078;8.648;2023-04-25T00:37:47;8.30;;;3.20;;
19004;SDS011;9635;52.078;8.648;2023-04-25T00:42:51;20.70;;;6.80;;
19004;SDS011;9635;52.078;8.648;2023-04-25T00:47:56;17.90;;;6.57;;
19004;SDS011;9635;52.078;8.648;2023-04-25T00:52:59;23.23;;;5.75;;
19004;SDS011;9635;52.078;8.648;2023-04-25T00:58:03;28.80;;;7.18;;
19004;SDS011;9635;52.078;8.648;2023-04-25T01:03:07;16.60;;;6.68;;
19004;SDS011;9635;52.078;8.648;2023-04-25T01:08:11;23.52;;;7.82;;
19004;SDS011;9635;52.078;8.648;2023-04-25T01:13:15;18.85;;;6.00;;
19004;SDS011;9635;52.078;8.648;2023-04-25T01:18:19;12.18;;;4.88;;
19004;SDS011;9635;52.078;8.648;2023-04-25T01:23:23;27.65;;;8.48;;
19004;SDS011;9635;52.078;8.648;2023-04-25T01:28:26;16.05;;;6.97;;
19004;SDS011;9635;52.078;8.648;2023-04-25T01:33:30;22.08;;;9.75;;
19004;SDS011;9635;52.078;8.648;2023-04-25T01:38:34;27.67;;;9.93;;
19004;SDS011;9635;52.078;8.648;2023-04-25T01:43:37;29.25;;;8.98;;
19004;SDS011;9635;52.078;8.648;2023-04-25T01:48:40;27.25;;;10.40;;
19004;SDS011;9635;52.078;8.648;2023-04-25T01:53:44;20.73;;;8.60;;
19004;SDS011;9635;52.078;8.648;2023-04-25T01:58:48;22.70;;;8.68;;
19004;SDS011;9635;52.078;8.648;2023-04-25T02:03:54;24.13;;;7.80;;
19004;SDS011;9635;52.078;8.648;2023-04-25T02:09:08;16.52;;;6.32;;
19004;SDS011;9635;52.078;8.648;2023-04-25T02:14:16;13.77;;;6.20;;
19004;SDS011;9635;52.078;8.648;2023-04-25T02:19:39;12.25;;;5.90;;
19004;SDS011;9635;52.078;8.648;2023-04-25T02:24:43;12.80;;;6.18;;
19004;SDS011;9635;52.078;8.648;2023-04-25T02:29:46;18.80;;;6.57;;
19004;SDS011;9635;52.078;8.648;2023-04-25T02:34:49;16.17;;;6.68;;
19004;SDS011;9635;52.078;8.648;2023-04-25T02:39:53;19.17;;;7.95;;
19004;SDS011;9635;52.078;8.648;2023-04-25T02:44:56;18.58;;;6.18;;
19004;SDS011;9635;52.078;8.648;2023-04-25T02:50:00;19.38;;;6.47;;
19004;SDS011;9635;52.078;8.648;2023-04-25T02:55:05;17.05;;;6.82;;
19004;SDS011;9635;52.078;8.648;2023-04-25T03:00:10;17.58;;;7.72;;
19004;SDS011;9635;52.078;8.648;2023-04-25T03:05:15;21.35;;;7.40;;
19004;SDS011;9635;52.078;8.648;2023-04-25T03:10:20;26.38;;;7.05;;
19004;SDS011;9635;52.078;8.648;2023-04-25T03:15:23;33.25;;;9.30;;
19004;SDS011;9635;52.078;8.648;2023-04-25T03:20:26;25.63;;;7.18;;
19004;SDS011;9635;52.078;8.648;2023-04-25T03:25:31;26.20;;;7.70;;
19004;SDS011;9635;52.078;8.648;2023-04-25T03:30:33;30.95;;;7.97;;
19004;SDS011;9635;52.078;8.648;2023-04-25T03:35:37;39.40;;;7.97;;
19004;SDS011;9635;52.078;8.648;2023-04-25T03:40:42;27.17;;;7.18;;
19004;SDS011;9635;52.078;8.648;2023-04-25T03:45:52;32.92;;;6.90;;
19004;SDS011;9635;52.078;8.648;2023-04-25T03:50:57;45.65;;;6.60;;
19004;SDS011;9635;52.078;8.648;2023-04-25T03:56:02;23.75;;;6.65;;
19004;SDS011;9635;52.078;8.648;2023-04-25T04:01:08;28.20;;;7.28;;
19004;SDS011;9635;52.078;8.648;2023-04-25T04:06:12;21.42;;;6.00;;
19004;SDS011;9635;52.078;8.648;2023-04-25T04:11:22;26.10;;;6.50;;
19004;SDS011;9635;52.078;8.648;2023-04-25T04:16:25;28.77;;;8.30;;
19004;SDS011;9635;52.078;8.648;2023-04-25T04:21:28;28.33;;;7.60;;
19004;SDS011;9635;52.078;8.648;2023-04-25T04:26:33;32.05;;;6.30;;
19004;SDS011;9635;52.078;8.648;2023-04-25T04:32:02;29.05;;;6.60;;
19004;SDS011;9635;52.078;8.648;2023-04-25T04:37:07;24.10;;;5.85;;
19004;SDS011;9635;52.078;8.648;2023-04-25T04:42:12;30.13;;;6.13;;
19004;SDS011;9635;52.078;8.648;2023-04-25T04:47:27;24.23;;;5.30;;
19004;SDS011;9635;52.078;8.648;2023-04-25T04:52:49;30.70;;;6.17;;
19004;SDS011;9635;52.078;8.648;2023-04-25T04:58:19;20.02;;;6.40;;
19004;SDS011;9635;52.078;8.648;2023-04-25T05:03:31;28.77;;;6.68;;
19004;SDS011;9635;52.078;8.648;2023-04-25T05:09:01;23.58;;;5.72;;
19004;SDS011;9635;52.078;8.648;2023-04-25T05:14:18;25.70;;;6.13;;
19004;SDS011;9635;52.078;8.648;2023-04-25T05:19:56;33.03;;;7.55;;
19004;SDS011;9635;52.078;8.648;2023-04-25T05:25:29;27.35;;;6.70;;
19004;SDS011;9635;52.078;8.648;2023-04-25T05:31:02;29.85;;;7.47;;
19004;SDS011;9635;52.078;8.648;2023-04-25T05:36:17;23.55;;;6.07;;
19004;SDS011;9635;52.078;8.648;2023-04-25T05:41:21;23.15;;;6.50;;
19004;SDS011;9635;52.078;8.648;2023-04-25T05:46:44;31.67;;;8.60;;
19004;SDS011;9635;52.078;8.648;2023-04-25T05:51:46;19.13;;;6.15;;
19004;SDS011;9635;52.078;8.648;2023-04-25T05:57:02;32.72;;;7.78;;
19004;SDS011;9635;52.078;8.648;2023-04-25T06:02:07;23.33;;;6.25;;
19004;SDS011;9635;52.078;8.648;2023-04-25T06:07:12;21.77;;;6.53;;
19004;SDS011;9635;52.078;8.648;2023-04-25T06:12:15;16.00;;;5.32;;
19004;SDS011;9635;52.078;8.648;2023-04-25T06:17:20;23.73;;;5.57;;
19004;SDS011;9635;52.078;8.648;2023-04-25T06:22:24;24.02;;;5.85;;
19004;SDS011;9635;52.078;8.648;2023-04-25T06:27:27;25.35;;;5.05;;
19004;SDS011;9635;52.078;8.648;2023-04-25T06:32:32;20.30;;;4.90;;
19004;SDS011;9635;52.078;8.648;2023-04-25T06:37:35;25.10;;;4.45;;
19004;SDS011;9635;52.078;8.648;2023-04-25T06:42:38;12.88;;;3.70;;
19004;SDS011;9635;52.078;8.648;2023-04-25T06:48:21;23.67;;;4.75;;
19004;SDS011;9635;52.078;8.648;2023-04-25T06:53:25;27.50;;;4.45;;
19004;SDS011;9635;52.078;8.648;2023-04-25T06:58:33;24.33;;;4.60;;
19004;SDS011;9635;52.078;8.648;2023-04-25T07:04:00;22.45;;;3.90;;
19004;SDS011;9635;52.078;8.648;2023-04-25T07:09:06;19.30;;;4.28;;
19004;SDS011;9635;52.078;8.648;2023-04-25T07:14:10;18.60;;;4.85;;
19004;SDS011;9635;52.078;8.648;2023-04-25T07:19:16;24.13;;;4.70;;
19004;SDS011;9635;52.078;8.648;2023-04-25T07:24:19;18.40;;;3.33;;
19004;SDS011;9635;52.078;8.648;2023-04-25T07:29:23;13.18;;;3.92;;
19004;SDS011;9635;52.078;8.648;2023-04-25T07:34:28;14.38;;;3.30;;
19004;SDS011;9635;52.078;8.648;2023-04-25T07:39:32;14.52;;;3.63;;
19004;SDS011;9635;52.078;8.648;2023-04-25T07:44:35;7.90;;;3.08;;
19004;SDS011;9635;52.078;8.648;2023-04-25T07:49:43;20.20;;;3.45;;
19004;SDS011;9635;52.078;8.648;2023-04-25T07:54:46;9.38;;;2.83;;
19004;SDS011;9635;52.078;8.648;2023-04-25T07:59:55;20.13;;;3.65;;
19004;SDS011;9635;52.078;8.648;2023-04-25T08:05:01;12.65;;;3.28;;
19004;SDS011;9635;52.078;8.648;2023-04-25T08:10:04;15.35;;;3.33;;
19004;SDS011;9635;52.078;8.648;2023-04-25T08:15:09;13.90;;;3.22;;
19004;SDS011;9635;52.078;8.648;2023-04-25T08:20:15;9.40;;;2.28;;
19004;SDS011;9635;52.078;8.648;2023-04-25T08:25:19;15.60;;;4.18;;
19004;SDS011;9635;52.078;8.648;2023-04-25T08:30:22;9.32;;;2.45;;
19004;SDS011;9635;52.078;8.648;2023-04-25T08:35:27;11.05;;;2.88;;
19004;SDS011;9635;52.078;8.648;2023-04-25T08:40:30;13.68;;;2.80;;
19004;SDS011;9635;52.078;8.648;2023-04-25T08:45:44;12.02;;;1.75;;
19004;SDS011;9635;52.078;8.648;2023-04-25T08:51:06;14.93;;;2.60;;
19004;SDS011;9635;52.078;8.648;2023-04-25T08:56:17;13.40;;;2.63;;
19004;SDS011;9635;52.078;8.648;2023-04-25T09:01:21;8.90;;;3.03;;
19004;SDS011;9635;52.078;8.648;2023-04-25T09:06:29;8.45;;;1.95;;
19004;SDS011;9635;52.078;8.648;2023-04-25T09:11:33;18.08;;;4.10;;
19004;SDS011;9635;52.078;8.648;2023-04-25T09:16:57;11.40;;;2.10;;
19004;SDS011;9635;52.078;8.648;2023-04-25T09:22:23;9.27;;;2.58;;
19004;SDS011;9635;52.078;8.648;2023-04-25T09:27:26;7.85;;;1.80;;
19004;SDS011;9635;52.078;8.648;2023-04-25T09:32:47;13.32;;;3.63;;
19004;SDS011;9635;52.078;8.648;2023-04-25T09:37:51;7.05;;;1.60;;
19004;SDS011;9635;52.078;8.648;2023-04-25T09:43:18;9.40;;;2.88;;
19004;SDS011;9635;52.078;8.648;2023-04-25T09:48:24;7.00;;;2.45;;
19004;SDS011;9635;52.078;8.648;2023-04-25T09:53:32;8.35;;;2.00;;
19004;SDS011;9635;52.078;8.648;2023-04-25T09:58:55;4.90;;;1.30;;
19004;SDS011;9635;52.078;8.648;2023-04-25T10:03:58;11.77;;;2.08;;
19004;SDS011;9635;52.078;8.648;2023-04-25T10:09:32;7.15;;;2.13;;
19004;SDS011;9635;52.078;8.648;2023-04-25T10:14:36;5.75;;;1.55;;
19004;SDS011;9635;52.078;8.648;2023-04-25T10:19:39;9.13;;;1.67;;
19004;SDS011;9635;52.078;8.648;2023-04-25T10:24:43;7.75;;;1.45;;
19004;SDS011;9635;52.078;8.648;2023-04-25T10:29:59;6.40;;;1.50;;
19004;SDS011;9635;52.078;8.648;2023-04-25T10:35:10;5.95;;;1.95;;
19004;SDS011;9635;52.078;8.648;2023-04-25T10:40:16;6.97;;;2.10;;
19004;SDS011;9635;52.078;8.648;2023-04-25T10:45:24;5.38;;;1.30;;
19004;SDS011;9635;52.078;8.648;2023-04-25T10:50:36;5.00;;;1.13;;
19004;SDS011;9635;52.078;8.648;2023-04-25T10:55:50;5.33;;;1.13;;
19004;SDS011;9635;52.078;8.648;2023-04-25T11:00:53;7.70;;;1.90;;
19004;SDS011;9635;52.078;8.648;2023-04-25T11:05:58;5.53;;;1.40;;
19004;SDS011;9635;52.078;8.648;2023-04-25T11:11:04;6.88;;;1.77;;
19004;SDS011;9635;52.078;8.648;2023-04-25T11:16:07;8.18;;;1.83;;
19004;SDS011;9635;52.078;8.648;2023-04-25T11:21:13;5.65;;;1.77;;
19004;SDS011;9635;52.078;8.648;2023-04-25T11:26:18;8.02;;;1.27;;
19004;SDS011;9635;52.078;8.648;2023-04-25T11:31:21;7.78;;;1.70;;
19004;SDS011;9635;52.078;8.648;2023-04-25T11:36:24;8.77;;;1.60;;
19004;SDS011;9635;52.078;8.648;2023-04-25T11:41:29;8.13;;;3.13;;
19004;SDS011;9635;52.078;8.648;2023-04-25T11:46:33;7.07;;;1.60;;
19004;SDS011;9635;52.078;8.648;2023-04-25T11:51:40;5.72;;;1.30;;
19004;SDS011;9635;52.078;8.648;2023-04-25T11:56:45;6.80;;;1.58;;
19004;SDS011;9635;52.078;8.648;2023-04-25T12:01:49;7.20;;;1.23;;
19004;SDS011;9635;52.078;8.648;2023-04-25T12:06:52;5.85;;;1.67;;
19004;SDS011;9635;52.078;8.648;2023-04-25T12:11:59;10.98;;;1.65;;
19004;SDS011;9635;52.078;8.648;2023-04-25T12:17:04;2.70;;;1.00;;
19004;SDS011;9635;52.078;8.648;2023-04-25T12:22:20;3.47;;;1.48;;
19004;SDS011;9635;52.078;8.648;2023-04-25T12:27:25;6.32;;;1.70;;
19004;SDS011;9635;52.078;8.648;2023-04-25T12:32:28;8.20;;;1.70;;
19004;SDS011;9635;52.078;8.648;2023-04-25T12:37:32;8.02;;;1.65;;
19004;SDS011;9635;52.078;8.648;2023-04-25T12:42:36;9.02;;;2.45;;
19004;SDS011;9635;52.078;8.648;2023-04-25T12:47:39;6.93;;;1.70;;
19004;SDS011;9635;52.078;8.648;2023-04-25T12:52:41;13.63;;;2.45;;
19004;SDS011;9635;52.078;8.648;2023-04-25T12:57:45;3.28;;;1.25;;
19004;SDS011;9635;52.078;8.648;2023-04-25T13:02:49;5.00;;;1.23;;
19004;SDS011;9635;52.078;8.648;2023-04-25T13:07:52;4.97;;;1.42;;
19004;SDS011;9635;52.078;8.648;2023-04-25T13:12:56;8.15;;;1.98;;
19004;SDS011;9635;52.078;8.648;2023-04-25T13:17:59;3.78;;;1.25;;
19004;SDS011;9635;52.078;8.648;2023-04-25T13:23:02;5.45;;;2.35;;
19004;SDS011;9635;52.078;8.648;2023-04-25T13:28:06;3.20;;;1.05;;
19004;SDS011;9635;52.078;8.648;2023-04-25T13:38:26;4.93;;;1.17;;
19004;SDS011;9635;52.078;8.648;2023-04-25T13:43:31;1.00;;;0.60;;
19004;SDS011;9635;52.078;8.648;2023-04-25T13:48:35;3.58;;;1.35;;
19004;SDS011;9635;52.078;8.648;2023-04-25T13:53:38;4.82;;;1.10;;
19004;SDS011;9635;52.078;8.648;2023-04-25T13:58:42;4.80;;;1.23;;
19004;SDS011;9635;52.078;8.648;2023-04-25T14:03:45;5.57;;;1.35;;
19004;SDS011;9635;52.078;8.648;2023-04-25T14:08:48;4.80;;;1.35;;
19004;SDS011;9635;52.078;8.648;2023-04-25T14:13:52;3.45;;;0.90;;
19004;SDS011;9635;52.078;8.648;2023-04-25T14:18:55;4.20;;;1.42;;
19004;SDS011;9635;52.078;8.648;2023-04-25T14:23:59;4.18;;;1.20;;
19004;SDS011;9635;52.078;8.648;2023-04-25T14:29:03;4.82;;;1.45;;
19004;SDS011;9635;52.078;8.648;2023-04-25T14:34:07;3.00;;;1.35;;
19004;SDS011;9635;52.078;8.648;2023-04-25T14:39:10;2.70;;;1.02;;
19004;SDS011;9635;52.078;8.648;2023-04-25T14:44:15;7.75;;;2.08;;
19004;SDS011;9635;52.078;8.648;2023-04-25T14:49:18;3.17;;;1.25;;
19004;SDS011;9635;52.078;8.648;2023-04-25T14:54:21;1.95;;;0.90;;
19004;SDS011;9635;52.078;8.648;2023-04-25T14:59:25;3.95;;;1.23;;
19004;SDS011;9635;52.078;8.648;2023-04-25T15:04:28;7.13;;;1.27;;
19004;SDS011;9635;52.078;8.648;2023-04-25T15:09:31;4.03;;;1.30;;
19004;SDS011;9635;52.078;8.648;2023-04-25T15:14:35;2.95;;;1.10;;
19004;SDS011;9635;52.078;8.648;2023-04-25T15:19:38;1.95;;;0.85;;
19004;SDS011;9635;52.078;8.648;2023-04-25T15:24:41;2.40;;;0.88;;
19004;SDS011;9635;52.078;8.648;2023-04-25T15:29:45;4.72;;;1.05;;
19004;SDS011;9635;52.078;8.648;2023-04-25T15:34:48;3.67;;;0.90;;
19004;SDS011;9635;52.078;8.648;2023-04-25T15:39:52;2.05;;;0.90;;
19004;SDS011;9635;52.078;8.648;2023-04-25T15:45:07;3.55;;;1.02;;
19004;SDS011;9635;52.078;8.648;2023-04-25T15:50:12;3.70;;;0.77;;
19004;SDS011;9635;52.078;8.648;2023-04-25T15:55:16;6.05;;;1.05;;
19004;SDS011;9635;52.078;8.648;2023-04-25T16:00:22;4.05;;;0.90;;
19004;SDS011;9635;52.078;8.648;2023-04-25T16:05:25;2.60;;;1.23;;
19004;SDS011;9635;52.078;8.648;2023-04-25T16:10:28;5.78;;;0.90;;
19004;SDS011;9635;52.078;8.648;2023-04-25T16:15:32;3.45;;;1.20;;
19004;SDS011;9635;52.078;8.648;2023-04-25T16:20:36;3.17;;;0.70;;
19004;SDS011;9635;52.078;8.648;2023-04-25T16:25:39;4.32;;;0.80;;
19004;SDS011;9635;52.078;8.648;2023-04-25T16:30:44;4.88;;;1.48;;
19004;SDS011;9635;52.078;8.648;2023-04-25T16:35:47;2.47;;;0.70;;
19004;SDS011;9635;52.078;8.648;2023-04-25T16:40:52;4.15;;;1.00;;
19004;SDS011;9635;52.078;8.648;2023-04-25T16:45:56;7.47;;;1.35;;
19004;SDS011;9635;52.078;8.648;2023-04-25T16:50:59;3.67;;;1.35;;
19004;SDS011;9635;52.078;8.648;2023-04-25T16:56:02;7.82;;;1.50;;
19004;SDS011;9635;52.078;8.648;2023-04-25T17:01:07;6.63;;;1.48;;
19004;SDS011;9635;52.078;8.648;2023-04-25T17:06:09;6.28;;;1.38;;
19004;SDS011;9635;52.078;8.648;2023-04-25T17:11:12;2.35;;;0.98;;
19004;SDS011;9635;52.078;8.648;2023-04-25T17:21:23;7.00;;;2.05;;
19004;SDS011;9635;52.078;8.648;2023-04-25T17:26:26;4.75;;;1.60;;
19004;SDS011;9635;52.078;8.648;2023-04-25T17:31:30;5.45;;;1.30;;
19004;SDS011;9635;52.078;8.648;2023-04-25T17:36:33;4.30;;;1.40;;
19004;SDS011;9635;52.078;8.648;2023-04-25T17:41:36;7.90;;;2.40;;
19004;SDS011;9635;52.078;8.648;2023-04-25T17:46:40;4.78;;;1.90;;
19004;SDS011;9635;52.078;8.648;2023-04-25T17:51:44;6.38;;;1.38;;
19004;SDS011;9635;52.078;8.648;2023-04-25T17:56:46;7.35;;;1.27;;
19004;SDS011;9635;52.078;8.648;2023-04-25T18:01:51;11.60;;;1.98;;
19004;SDS011;9635;52.078;8.648;2023-04-25T18:06:54;4.65;;;1.13;;
19004;SDS011;9635;52.078;8.648;2023-04-25T18:11:57;3.00;;;1.10;;
19004;SDS011;9635;52.078;8.648;2023-04-25T18:17:01;9.07;;;1.60;;
19004;SDS011;9635;52.078;8.648;2023-04-25T18:22:07;3.97;;;1.08;;
19004;SDS011;9635;52.078;8.648;2023-04-25T18:27:10;6.88;;;1.30;;
19004;SDS011;9635;52.078;8.648;2023-04-25T18:32:14;5.65;;;1.60;;
19004;SDS011;9635;52.078;8.648;2023-04-25T18:37:17;8.35;;;1.25;;
19004;SDS011;9635;52.078;8.648;2023-04-25T18:42:21;8.65;;;1.58;;
19004;SDS011;9635;52.078;8.648;2023-04-25T18:47:25;6.25;;;1.60;;
19004;SDS011;9635;52.078;8.648;2023-04-25T18:52:28;4.03;;;1.52;;
19004;SDS011;9635;52.078;8.648;2023-04-25T18:57:31;4.20;;;1.45;;
19004;SDS011;9635;52.078;8.648;2023-04-25T19:02:36;7.15;;;2.80;;
19004;SDS011;9635;52.078;8.648;2023-04-25T19:07:39;5.25;;;1.65;;
19004;SDS011;9635;52.078;8.648;2023-04-25T19:12:42;5.90;;;1.83;;
19004;SDS011;9635;52.078;8.648;2023-04-25T19:17:46;5.93;;;1.55;;
19004;SDS011;9635;52.078;8.648;2023-04-25T19:22:49;10.18;;;1.98;;
19004;SDS011;9635;52.078;8.648;2023-04-25T19:27:53;7.03;;;2.20;;
19004;SDS011;9635;52.078;8.648;2023-04-25T19:32:58;7.18;;;2.25;;
19004;SDS011;9635;52.078;8.648;2023-04-25T19:38:01;7.45;;;1.98;;
19004;SDS011;9635;52.078;8.648;2023-04-25T19:43:04;7.20;;;1.83;;
19004;SDS011;9635;52.078;8.648;2023-04-25T19:48:09;10.32;;;2.10;;
19004;SDS011;9635;52.078;8.648;2023-04-25T19:53:12;7.85;;;1.83;;
19004;SDS011;9635;52.078;8.648;2023-04-25T19:58:15;6.18;;;1.70;;
19004;SDS011;9635;52.078;8.648;2023-04-25T20:03:19;7.32;;;2.30;;
19004;SDS011;9635;52.078;8.648;2023-04-25T20:08:22;6.13;;;2.30;;
19004;SDS011;9635;52.078;8.648;2023-04-25T20:13:26;4.72;;;1.75;;
19004;SDS011;9635;52.078;8.648;2023-04-25T20:18:30;8.40;;;1.75;;
19004;SDS011;9635;52.078;8.648;2023-04-25T20:23:33;5.47;;;1.77;;
19004;SDS011;9635;52.078;8.648;2023-04-25T20:28:36;8.80;;;1.88;;
19004;SDS011;9635;52.078;8.648;2023-04-25T20:33:40;10.98;;;1.85;;
19004;SDS011;9635;52.078;8.648;2023-04-25T20:38:44;6.75;;;1.77;;
19004;SDS011;9635;52.078;8.648;2023-04-25T20:43:47;7.43;;;2.40;;
19004;SDS011;9635;52.078;8.648;2023-04-25T20:48:51;10.38;;;2.33;;
19004;SDS011;9635;52.078;8.648;2023-04-25T20:53:55;11.90;;;2.30;;
19004;SDS011;9635;52.078;8.648;2023-04-25T20:58:58;5.13;;;2.33;;
19004;SDS011;9635;52.078;8.648;2023-04-25T21:04:02;10.50;;;1.83;;
19004;SDS011;9635;52.078;8.648;2023-04-25T21:09:06;9.75;;;2.20;;
19004;SDS011;9635;52.078;8.648;2023-04-25T21:14:10;7.60;;;2.03;;
19004;SDS011;9635;52.078;8.648;2023-04-25T21:19:14;5.65;;;2.22;;
19004;SDS011;9635;52.078;8.648;2023-04-25T21:24:17;4.95;;;1.85;;
19004;SDS011;9635;52.078;8.648;2023-04-25T21:29:22;9.10;;;2.15;;
19004;SDS011;9635;52.078;8.648;2023-04-25T21:34:26;7.68;;;2.13;;
19004;SDS011;9635;52.078;8.648;2023-04-25T21:39:29;6.10;;;2.58;;
19004;SDS011;9635;52.078;8.648;2023-04-25T21:44:31;6.25;;;1.98;;
19004;SDS011;9635;52.078;8.648;2023-04-25T21:49:36;6.40;;;2.42;;
19004;SDS011;9635;52.078;8.648;2023-04-25T21:54:38;6.68;;;2.20;;
19004;SDS011;9635;52.078;8.648;2023-04-25T21:59:41;4.55;;;2.00;;
19004;SDS011;9635;52.078;8.648;2023-04-25T22:04:46;6.53;;;2.53;;
19004;SDS011;9635;52.078;8.648;2023-04-25T22:09:49;9.65;;;3.22;;
19004;SDS011;9635;52.078;8.648;2023-04-25T22:14:56;12.82;;;2.65;;
19004;SDS011;9635;52.078;8.648;2023-04-25T22:20:00;12.30;;;2.67;;
19004;SDS011;9635;52.078;8.648;2023-04-25T22:25:09;5.68;;;2.67;;
19004;SDS011;9635;52.078;8.648;2023-04-25T22:30:13;8.50;;;2.70;;
19004;SDS011;9635;52.078;8.648;2023-04-25T22:35:17;7.63;;;2.65;;
19004;SDS011;9635;52.078;8.648;2023-04-25T22:40:20;9.45;;;2.10;;
19004;SDS011;9635;52.078;8.648;2023-04-25T22:45:23;15.38;;;2.60;;
19004;SDS011;9635;52.078;8.648;2023-04-25T22:50:27;8.85;;;2.30;;
19004;SDS011;9635;52.078;8.648;2023-04-25T22:55:30;7.22;;;2.58;;
19004;SDS011;9635;52.078;8.648;2023-04-25T23:00:33;15.77;;;2.83;;
19004;SDS011;9635;52.078;8.648;2023-04-25T23:05:37;8.02;;;1.95;;
19004;SDS011;9635;52.078;8.648;2023-04-25T23:10:40;5.80;;;2.58;;
19004;SDS011;9635;52.078;8.648;2023-04-25T23:15:43;7.38;;;2.78;;
19004;SDS011;9635;52.078;8.648;2023-04-25T23:20:47;8.80;;;2.15;;
19004;SDS011;9635;52.078;8.648;2023-04-25T23:25:50;8.80;;;2.72;;
19004;SDS011;9635;52.078;8.648;2023-04-25T23:30:53;12.05;;;2.78;;
19004;SDS011;9635;52.078;8.648;2023-04-25T23:35:57;10.82;;;3.33;;
19004;SDS011;9635;52.078;8.648;2023-04-25T23:41:00;8.18;;;2.55;;
19004;SDS011;9635;52.078;8.648;2023-04-25T23:46:03;5.53;;;2.20;;
19004;SDS011;9635;52.078;8.648;2023-04-25T23:51:08;10.40;;;2.70;;
19004;SDS011;9635;52.078;8.648;2023-04-25T23:56:10;10.52;;;2.42;;
